Time;durP1;ratioP1;P1;durP2;ratioP2;P2;SDS_P1;SDS_P2;PMS_P1;PMS_P2;Temp;Humidity;BMP_temperature;BMP_pressure;BME280_temperature;BME280_humidity;BME280_pressure;Samples;Min_cycle;Max_cycle;Signal;HPM_P1;HPM_P2
2022/12/27 00:02:05;;;;;;;2.42;1.40;;;5.10;99.90;;;4.83;100.00;101771.91;5159876;28;20050;-70
2022/12/27 00:04:41;;;;;;;4.05;1.52;;;5.10;99.90;;;4.84;100.00;101772.00;5144830;28;20043;-69
2022/12/27 00:07:13;;;;;;;2.70;1.35;;;5.10;99.90;;;4.84;100.00;101777.19;5144816;28;20477;-69
2022/12/27 00:09:47;;;;;;;3.92;1.40;;;5.10;99.90;;;4.85;100.00;101770.31;5144446;28;20047;-69
2022/12/27 00:12:19;;;;;;;3.95;1.08;;;5.10;99.90;;;4.84;100.00;101773.69;5144801;28;20433;-69
2022/12/27 00:14:51;;;;;;;2.92;1.17;;;5.10;99.90;;;4.84;100.00;101776.28;5144335;28;20399;-70
2022/12/27 00:17:23;;;;;;;2.17;1.33;;;5.10;99.90;;;4.84;100.00;101781.44;5144030;28;20053;-66
2022/12/27 00:19:57;;;;;;;4.55;1.30;;;5.10;99.90;;;4.83;100.00;101775.38;5144344;28;20065;-69
2022/12/27 00:22:29;;;;;;;3.40;1.27;;;5.10;99.90;;;4.82;100.00;101778.72;5143926;28;20046;-69
2022/12/27 00:25:01;;;;;;;1.70;0.95;;;5.10;99.90;;;4.83;100.00;101774.50;5144111;28;20427;-69
2022/12/27 00:27:33;;;;;;;1.88;0.98;;;5.10;99.90;;;4.82;100.00;101770.09;5151878;28;20074;-69
2022/12/27 00:30:08;;;;;;;1.67;0.85;;;5.10;99.90;;;4.83;100.00;101770.22;5153067;28;20038;-70
2022/12/27 00:32:40;;;;;;;1.95;1.10;;;5.00;99.90;;;4.83;100.00;101774.50;5155001;28;20043;-69
2022/12/27 00:35:14;;;;;;;2.85;1.05;;;5.00;99.90;;;4.81;100.00;101771.75;5142791;28;20307;-68
2022/12/27 00:37:46;;;;;;;3.30;1.00;;;5.00;99.90;;;4.79;100.00;101780.19;5146420;28;20051;-70
2022/12/27 00:40:18;;;;;;;4.18;1.13;;;5.00;99.90;;;4.78;100.00;101781.91;5149267;28;20058;-69
2022/12/27 00:42:50;;;;;;;2.08;1.10;;;5.00;99.90;;;4.79;100.00;101777.63;5161339;28;20050;-69
2022/12/27 00:45:22;;;;;;;2.50;1.00;;;5.00;99.90;;;4.81;100.00;101781.19;5163195;28;20042;-71
2022/12/27 00:47:55;;;;;;;2.22;1.00;;;5.00;99.90;;;4.79;100.00;101777.63;5154355;28;20047;-70
2022/12/27 00:50:28;;;;;;;1.30;1.13;;;5.00;99.90;;;4.81;100.00;101791.53;5143782;28;20420;-69
2022/12/27 00:53:00;;;;;;;2.85;1.13;;;5.00;99.90;;;4.78;100.00;101791.34;5143579;28;20129;-69
2022/12/27 00:55:32;;;;;;;2.17;1.20;;;5.00;99.90;;;4.76;100.00;101792.88;5143730;28;20043;-69
2022/12/27 00:58:05;;;;;;;4.15;1.00;;;5.00;99.90;;;4.74;100.00;101790.19;5143873;28;20049;-70
2022/12/27 01:00:39;;;;;;;2.33;1.08;;;5.00;99.90;;;4.76;100.00;101785.13;5155740;28;20043;-71
2022/12/27 01:03:11;;;;;;;2.38;1.10;;;5.00;99.90;;;4.77;100.00;101792.13;5145382;28;20043;-69
2022/12/27 01:05:45;;;;;;;1.15;0.95;;;5.00;99.90;;;4.79;100.00;101790.53;5143485;28;20049;-70
2022/12/27 01:08:18;;;;;;;2.50;1.13;;;5.00;99.90;;;4.82;100.00;101793.34;5143663;28;20047;-69
2022/12/27 01:10:51;;;;;;;2.35;1.10;;;5.10;99.90;;;4.83;100.00;101790.88;5143840;28;20411;-69
2022/12/27 01:13:23;;;;;;;3.03;1.10;;;5.10;99.90;;;4.88;100.00;101793.78;5143716;28;20121;-69
2022/12/27 01:15:55;;;;;;;2.97;1.20;;;5.10;99.90;;;4.92;100.00;101800.09;5143514;28;20085;-70
2022/12/27 01:18:27;;;;;;;3.85;1.20;;;5.20;99.90;;;4.96;100.00;101796.97;5143337;28;20050;-69
2022/12/27 01:21:06;;;;;;;5.88;1.67;;;5.20;99.90;;;5.00;100.00;101791.22;5143286;28;20133;-69
2022/12/27 01:23:39;;;;;;;2.70;1.13;;;5.30;99.90;;;5.01;100.00;101786.13;5143862;28;20042;-69
2022/12/27 01:26:14;;;;;;;4.35;1.00;;;5.30;99.90;;;5.03;100.00;101789.75;5143341;28;20043;-65
2022/12/27 01:28:47;;;;;;;3.55;1.27;;;5.30;99.90;;;5.05;100.00;101793.34;5142091;28;20070;-69
2022/12/27 01:31:23;;;;;;;5.47;1.23;;;5.30;99.90;;;5.08;100.00;101784.91;5143335;28;20042;-70
2022/12/27 01:33:58;;;;;;;3.33;1.10;;;5.40;99.90;;;5.10;100.00;101792.00;5158385;28;20160;-71
2022/12/27 01:36:32;;;;;;;2.15;0.93;;;5.40;99.90;;;5.12;100.00;101789.50;5143344;28;20082;-70
2022/12/27 01:39:05;;;;;;;3.40;1.40;;;5.40;99.90;;;5.14;100.00;101790.50;5158003;28;20055;-69
2022/12/27 01:44:53;;;;;;;3.40;1.00;;;5.40;99.90;;;5.16;100.00;101789.84;5143581;28;20058;-68
2022/12/27 01:47:31;;;;;;;;;;;5.40;99.90;;;5.16;100.00;101797.63;5143529;28;20082;-70
2022/12/27 01:50:17;;;;;;;1.63;1.00;;;5.40;99.90;;;5.18;100.00;101796.03;5143611;28;20291;-70
2022/12/27 01:52:59;;;;;;;3.75;1.20;;;5.40;99.90;;;5.18;100.00;101816.69;5143240;28;20117;-69
2022/12/27 01:55:38;;;;;;;2.47;1.00;;;5.40;99.90;;;5.20;100.00;101811.63;5143315;28;20043;-69
2022/12/27 01:58:16;;;;;;;2.42;1.10;;;5.40;99.90;;;5.21;100.00;101810.84;5144744;28;20070;-68
2022/12/27 02:00:50;;;;;;;2.67;1.08;;;5.50;99.90;;;5.23;100.00;101822.22;5147780;28;20488;-69
2022/12/27 02:03:27;;;;;;;3.53;1.55;;;5.50;99.90;;;5.24;100.00;101816.25;5147142;28;20055;-71
2022/12/27 02:06:01;;;;;;;3.20;0.95;;;5.50;99.90;;;5.25;100.00;101817.16;5146826;28;20039;-68
2022/12/27 02:08:43;;;;;;;1.50;1.02;;;5.50;99.90;;;5.25;100.00;101815.47;5145025;28;20082;-71
2022/12/27 02:11:17;;;;;;;3.28;1.23;;;5.50;99.90;;;5.25;100.00;101827.50;5147017;28;20058;-68
2022/12/27 02:13:51;;;;;;;2.03;1.10;;;5.50;99.90;;;5.22;100.00;101822.13;5147399;28;20080;-69
2022/12/27 02:16:23;;;;;;;3.53;1.33;;;5.50;99.90;;;5.20;100.00;101821.09;5146886;28;20437;-70
2022/12/27 02:18:56;;;;;;;4.32;1.08;;;5.40;99.90;;;5.17;100.00;101820.09;5146882;28;20094;-67
2022/12/27 02:22:12;;;;;;;1.23;0.68;;;5.40;99.90;;;5.16;100.00;101828.63;5146310;28;20142;-69
2022/12/27 02:25:10;;;;;;;3.10;1.02;;;5.40;99.90;;;5.09;100.00;101821.22;5146876;28;20049;-69
2022/12/27 02:28:02;;;;;;;0.73;0.63;;;5.40;99.90;;;5.05;100.00;101820.88;5147227;28;20524;-69
2022/12/27 02:30:37;;;;;;;2.35;1.08;;;5.30;99.90;;;5.02;100.00;101812.88;5147170;28;20053;-68
2022/12/27 02:33:15;;;;;;;1.15;0.73;;;5.30;99.90;;;4.99;100.00;101818.72;5147001;28;20047;-68
2022/12/27 02:35:55;;;;;;;1.58;1.00;;;5.30;99.90;;;4.98;100.00;101828.97;5161385;28;20117;-68
2022/12/27 02:38:30;;;;;;;2.25;1.00;;;5.20;99.90;;;4.97;100.00;101830.66;5146282;28;20055;-69
2022/12/27 02:53:04;;;;;;;2.20;0.80;;;5.10;99.90;;;4.76;100.00;101823.88;5146561;28;20070;-70
2022/12/27 02:59:11;;;;;;;3.22;0.93;;;5.00;99.90;;;4.57;100.00;101827.69;5145829;28;20042;-67
2022/12/27 03:05:10;;;;;;;0.77;0.50;;;4.80;99.90;;;4.43;100.00;101828.31;5146041;28;20049;-69
2022/12/27 03:07:49;;;;;;;2.03;0.82;;;4.70;99.90;;;4.40;100.00;101832.38;5145819;28;20053;-70
2022/12/27 03:16:27;;;;;;;1.48;0.80;;;4.60;99.90;;;4.45;100.00;101837.09;5165678;23;20065;-72
2022/12/27 03:19:08;;;;;;;1.10;1.00;;;4.70;99.90;;;4.52;100.00;101849.69;5160498;28;20140;-72
2022/12/27 03:27:33;;;;;;;0.95;0.68;;;4.80;99.90;;;4.72;100.00;101847.69;5165424;28;20089;-73
2022/12/27 03:33:13;;;;;;;0.93;0.60;;;5.00;99.90;;;4.84;100.00;101838.28;5141550;28;20411;-72
2022/12/27 03:38:46;;;;;;;1.58;0.68;;;5.10;99.90;;;4.95;100.00;101852.88;5147584;28;20058;-72
2022/12/27 03:44:26;;;;;;;2.65;0.80;;;5.20;99.90;;;5.03;100.00;101854.38;5165684;28;20046;-72
2022/12/27 03:46:59;;;;;;;1.60;0.75;;;5.30;99.90;;;5.06;100.00;101852.00;5165218;28;20047;-72
2022/12/27 03:49:37;;;;;;;0.73;0.63;;;5.30;99.90;;;5.10;100.00;101847.97;5165155;28;20076;-72
2022/12/27 03:52:16;;;;;;;2.53;0.98;;;5.40;99.90;;;5.10;100.00;101848.84;5165341;28;20133;-72
2022/12/27 03:54:51;;;;;;;1.20;0.68;;;5.40;99.90;;;5.13;100.00;101854.22;5147976;28;20038;-72
2022/12/27 03:57:26;;;;;;;1.38;0.80;;;5.40;99.90;;;5.15;100.00;101862.09;5164681;28;20046;-72
2022/12/27 03:59:59;;;;;;;1.25;0.75;;;5.40;99.90;;;5.16;100.00;101851.91;5165746;28;20070;-72
2022/12/27 04:02:31;;;;;;;2.45;0.73;;;5.40;99.90;;;5.20;100.00;101860.75;5165166;28;20038;-72
2022/12/27 04:05:04;;;;;;;1.35;0.63;;;5.50;99.90;;;5.22;100.00;101858.31;5164160;28;20053;-72
2022/12/27 04:07:37;;;;;;;2.30;0.73;;;5.50;99.90;;;5.25;100.00;101867.16;5146963;28;20069;-72
2022/12/27 04:35:39;;;;;;;2.45;1.17;;;5.50;99.90;;;5.32;100.00;101865.94;5164669;28;20116;-72
2022/12/27 04:38:11;;;;;;;1.02;0.80;;;5.60;99.90;;;5.31;100.00;101865.03;5164647;28;20503;-72
2022/12/27 04:55:17;;;;;;;1.92;0.70;;;5.60;99.90;;;5.40;100.00;101869.97;5164181;28;20520;-72
2022/12/27 04:57:51;;;;;;;1.65;1.00;;;5.70;99.90;;;5.43;100.00;101870.19;5163755;28;20048;-72
2022/12/27 05:03:21;;;;;;;3.05;0.82;;;5.70;99.90;;;5.44;100.00;101872.00;5164248;28;20046;-72
2022/12/27 05:05:54;;;;;;;2.42;0.90;;;5.70;99.90;;;5.46;100.00;101870.41;5164241;28;20034;-72
2022/12/27 05:14:13;;;;;;;1.52;0.70;;;5.70;99.90;;;5.45;100.00;101873.78;5163984;28;20121;-72
2022/12/27 05:16:45;;;;;;;2.05;0.70;;;5.70;99.90;;;5.48;100.00;101867.91;5163732;28;20051;-72
2022/12/27 05:19:18;;;;;;;0.65;0.63;;;5.70;99.90;;;5.50;100.00;101871.53;5163979;28;20042;-73
2022/12/27 05:27:25;;;;;;;0.65;0.63;;;5.80;99.90;;;5.57;100.00;101882.44;5162879;28;20274;-71
2022/12/27 05:29:59;;;;;;;0.85;0.75;;;5.80;99.90;;;5.58;100.00;101886.81;5163624;28;20042;-72
2022/12/27 05:32:31;;;;;;;2.30;0.60;;;5.80;99.90;;;5.58;100.00;101886.81;5162807;28;20085;-72
2022/12/27 05:35:04;;;;;;;1.42;0.90;;;5.80;99.90;;;5.57;100.00;101890.19;5163965;28;20048;-72
2022/12/27 05:37:36;;;;;;;0.52;0.52;;;5.80;99.90;;;5.57;100.00;101890.19;5162962;28;20433;-72
2022/12/27 05:40:10;;;;;;;0.77;0.73;;;5.80;99.90;;;5.56;100.00;101892.69;5163530;28;20049;-72
2022/12/27 05:42:43;;;;;;;1.90;1.20;;;5.80;99.90;;;5.56;100.00;101888.41;5164027;28;20076;-73
2022/12/27 05:45:17;;;;;;;1.17;0.70;;;5.80;99.90;;;5.57;100.00;101890.19;5163576;28;20352;-72
2022/12/27 05:47:49;;;;;;;1.05;0.80;;;5.80;99.90;;;5.60;100.00;101898.16;5161619;28;20077;-72
2022/12/27 05:50:22;;;;;;;1.00;0.73;;;5.80;99.90;;;5.62;100.00;101895.72;5146157;28;20058;-72
2022/12/27 05:52:56;;;;;;;1.90;1.02;;;5.80;99.90;;;5.62;100.00;101904.38;5163420;28;20066;-72
2022/12/27 05:55:28;;;;;;;0.90;0.80;;;5.80;99.90;;;5.62;100.00;101903.47;5163312;28;20047;-72
2022/12/27 05:58:00;;;;;;;1.35;0.90;;;5.80;99.90;;;5.58;100.00;101904.91;5163061;28;20038;-72
2022/12/27 06:00:34;;;;;;;1.65;0.93;;;5.80;99.90;;;5.57;100.00;101903.13;5145984;28;20054;-71
2022/12/27 06:03:06;;;;;;;0.73;0.50;;;5.80;99.90;;;5.56;100.00;101913.38;5163695;28;20508;-72
2022/12/27 06:05:38;;;;;;;1.27;0.70;;;5.80;99.90;;;5.53;100.00;101914.03;5145815;28;20050;-72
2022/12/27 06:08:11;;;;;;;0.57;0.57;;;5.80;99.90;;;5.51;100.00;101913.03;5163015;28;20249;-72
2022/12/27 06:10:43;;;;;;;2.30;0.82;;;5.70;99.90;;;5.48;100.00;101918.00;5163389;28;20518;-72
2022/12/27 06:13:15;;;;;;;0.88;0.80;;;5.70;99.90;;;5.48;100.00;101924.81;5162083;28;20145;-72
2022/12/27 06:15:49;;;;;;;3.17;1.00;;;5.70;99.90;;;5.43;100.00;101922.81;5163084;28;20043;-73
2022/12/27 06:18:21;;;;;;;2.50;0.90;;;5.70;99.90;;;5.42;100.00;101920.13;5162844;28;20503;-72
2022/12/27 06:20:53;;;;;;;1.83;0.65;;;5.60;99.90;;;5.40;100.00;101924.25;5163173;28;20407;-72
2022/12/27 06:23:25;;;;;;;2.50;0.73;;;5.60;99.90;;;5.37;100.00;101926.66;5163259;28;20125;-73
2022/12/27 06:25:57;;;;;;;1.63;1.00;;;5.60;99.90;;;5.36;100.00;101925.75;5162994;28;20380;-73
2022/12/27 06:28:29;;;;;;;1.42;0.90;;;5.60;99.90;;;5.33;100.00;101932.34;5162564;28;20046;-69
2022/12/27 06:31:04;;;;;;;1.23;0.70;;;5.60;99.90;;;5.33;100.00;101929.78;5162981;28;20400;-70
2022/12/27 06:33:36;;;;;;;0.80;0.65;;;5.50;99.90;;;5.33;100.00;101929.78;5163261;28;20054;-70
2022/12/27 06:36:11;;;;;;;1.02;0.73;;;5.60;99.90;;;5.31;100.00;101928.78;5145708;28;20062;-69
2022/12/27 06:38:43;;;;;;;0.80;0.70;;;5.50;99.90;;;5.29;100.00;101938.13;5145224;28;20148;-69
2022/12/27 06:41:18;;;;;;;3.42;0.63;;;5.50;99.90;;;5.26;100.00;101949.09;5162940;28;20042;-70
2022/12/27 06:43:56;;;;;;;1.25;0.60;;;5.50;99.90;;;5.24;100.00;101949.78;5163732;28;20407;-69
2022/12/27 06:46:29;;;;;;;0.55;0.52;;;5.40;99.90;;;5.21;100.00;101946.97;5166492;28;20056;-69
2022/12/27 06:49:01;;;;;;;1.58;1.00;;;5.40;99.90;;;5.17;100.00;101948.44;5166115;28;20046;-69
2022/12/27 06:51:35;;;;;;;1.35;0.43;;;5.40;99.90;;;5.16;100.00;101952.72;5166134;28;20038;-69
2022/12/27 06:54:07;;;;;;;0.65;0.60;;;5.40;99.90;;;5.15;100.00;101955.16;5166256;28;20049;-68
2022/12/27 06:56:39;;;;;;;0.80;0.60;;;5.30;99.90;;;5.14;100.00;101964.59;5166071;28;20042;-69
2022/12/27 06:59:12;;;;;;;1.80;0.80;;;5.40;99.90;;;5.15;100.00;101966.44;5165988;28;20046;-69
2022/12/27 07:01:45;;;;;;;1.00;0.52;;;5.40;99.90;;;5.17;100.00;101972.59;5166344;28;20097;-69
2022/12/27 07:04:18;;;;;;;1.52;1.02;;;5.40;99.90;;;5.17;100.00;101967.44;5164450;28;20054;-58
2022/12/27 07:06:50;;;;;;;2.13;0.82;;;5.40;99.90;;;5.18;100.00;101971.81;5148110;28;20130;-59
2022/12/27 07:09:22;;;;;;;2.67;0.80;;;5.40;99.90;;;5.17;100.00;101977.78;5165340;28;20042;-59
2022/12/27 07:11:54;;;;;;;1.35;0.60;;;5.30;99.90;;;5.17;100.00;101971.69;5165591;28;20049;-59
2022/12/27 07:14:26;;;;;;;1.52;0.75;;;5.40;99.90;;;5.17;100.00;101982.94;5165638;28;20061;-59
2022/12/27 07:16:59;;;;;;;1.30;0.70;;;5.40;99.90;;;5.18;100.00;101982.16;5165455;28;20050;-59
2022/12/27 07:19:32;;;;;;;1.05;0.68;;;5.40;99.90;;;5.17;100.00;101974.28;5164879;28;20057;-59
2022/12/27 07:22:04;;;;;;;1.77;0.90;;;5.40;99.90;;;5.21;100.00;101985.75;5165651;28;20531;-59
2022/12/27 07:24:36;;;;;;;3.47;1.15;;;5.40;99.90;;;5.23;100.00;101984.19;5165250;28;20544;-60
2022/12/27 07:27:08;;;;;;;1.70;0.85;;;5.40;99.90;;;5.23;100.00;101994.53;5164988;28;20053;-61
2022/12/27 07:29:40;;;;;;;1.77;1.05;;;5.40;99.90;;;5.16;100.00;101988.91;5164467;28;20057;-60
2022/12/27 07:32:13;;;;;;;4.15;1.02;;;5.40;99.90;;;5.09;100.00;101996.97;5164908;28;20053;-59
2022/12/27 07:34:46;;;;;;;1.85;0.90;;;5.40;99.90;;;5.04;100.00;101993.13;5147767;28;20429;-59
2022/12/27 07:37:19;;;;;;;2.97;0.93;;;5.30;99.90;;;5.00;100.00;101997.94;5164671;28;20046;-60
2022/12/27 07:39:51;;;;;;;2.53;1.17;;;5.30;99.90;;;4.97;100.00;101996.03;5164728;28;20049;-60
2022/12/27 07:42:23;;;;;;;4.80;1.40;;;5.30;99.90;;;4.95;100.00;102007.94;5164867;28;20050;-59
2022/12/27 07:44:55;;;;;;;3.58;1.10;;;5.20;99.90;;;4.93;100.00;102009.50;5165024;28;20046;-59
2022/12/27 07:47:28;;;;;;;3.20;1.02;;;5.20;99.90;;;4.90;100.00;102004.13;5164856;28;20066;-59
2022/12/27 07:50:01;;;;;;;2.25;1.13;;;5.20;99.90;;;4.85;100.00;102010.59;5165136;28;20515;-59
2022/12/27 07:52:33;;;;;;;2.28;1.08;;;5.10;99.90;;;4.80;100.00;102017.09;5164878;28;20313;-59
2022/12/27 07:55:06;;;;;;;2.58;1.15;;;5.10;99.90;;;4.76;100.00;102015.97;5163845;28;20050;-59
2022/12/27 07:57:38;;;;;;;3.53;1.35;;;5.00;99.90;;;4.75;100.00;102013.25;5164300;28;20407;-60
2022/12/27 08:00:11;;;;;;;5.95;1.10;;;5.00;99.90;;;4.73;100.00;102014.81;5164841;28;20049;-59
2022/12/27 08:02:46;;;;;;;2.97;1.17;;;5.00;99.90;;;4.72;100.00;102023.34;5165326;28;20046;-60
2022/12/27 08:05:18;;;;;;;5.38;1.02;;;5.00;99.90;;;4.73;100.00;102030.31;5164563;28;20579;-60
2022/12/27 08:07:50;;;;;;;4.90;1.20;;;5.00;99.90;;;4.71;100.00;102031.91;5164573;28;20043;-59
2022/12/27 08:10:23;;;;;;;1.83;0.90;;;5.00;99.90;;;4.71;100.00;102037.06;5165040;28;20137;-59
2022/12/27 08:12:55;;;;;;;2.35;1.10;;;4.90;99.90;;;4.66;100.00;102023.78;5164770;28;20407;-60
2022/12/27 08:15:27;;;;;;;2.30;1.23;;;4.90;99.90;;;4.63;100.00;102024.44;5164724;28;20054;-59
2022/12/27 08:18:00;;;;;;;2.20;1.13;;;4.90;99.90;;;4.60;100.00;102018.13;5163846;28;20056;-59
2022/12/27 08:20:32;;;;;;;2.63;1.40;;;4.90;99.90;;;4.58;100.00;102019.72;5164285;28;20046;-59
2022/12/27 08:23:04;;;;;;;2.20;1.30;;;4.80;99.90;;;4.56;100.00;102024.75;5164292;28;20122;-60
2022/12/27 08:25:36;;;;;;;4.18;1.27;;;4.80;99.90;;;4.55;100.00;102025.50;5164157;28;20460;-59
2022/12/27 08:28:12;;;;;;;3.38;1.40;;;4.80;99.90;;;4.57;100.00;102026.56;5163506;28;20492;-58
2022/12/27 08:30:46;;;;;;;2.95;1.48;;;4.80;99.90;;;4.61;100.00;102027.69;5146495;28;20057;-60
2022/12/27 08:33:19;;;;;;;2.67;1.33;;;4.80;99.90;;;4.66;100.00;102025.47;5164022;28;20516;-58
2022/12/27 08:35:51;;;;;;;3.28;1.77;;;4.90;99.90;;;4.73;100.00;102031.22;5163742;28;20050;-59
2022/12/27 08:38:24;;;;;;;3.38;1.60;;;4.90;99.90;;;4.79;100.00;102030.81;5146053;28;20082;-60
2022/12/27 08:40:56;;;;;;;2.83;1.65;;;5.00;99.90;;;4.85;100.00;102031.28;5164016;28;20043;-60
2022/12/27 08:43:28;;;;;;;4.05;1.60;;;5.10;99.90;;;4.91;100.00;102026.59;5163790;28;20054;-60
2022/12/27 08:46:02;;;;;;;4.75;1.80;;;5.10;99.90;;;4.94;100.00;102031.06;5163817;28;20047;-59
2022/12/27 08:48:36;;;;;;;6.20;1.60;;;5.20;99.90;;;5.18;100.00;102033.84;5163365;28;20550;-59
2022/12/27 08:51:09;;;;;;;4.80;2.03;;;5.40;99.90;;;5.61;100.00;102037.09;5163385;28;20104;-61
2022/12/27 08:53:41;;;;;;;3.83;1.70;;;5.80;99.90;;;6.01;100.00;102031.38;5163561;28;20054;-61
2022/12/27 08:56:13;;;;;;;6.40;2.03;;;6.20;99.90;;;6.33;100.00;102029.44;5163419;28;20054;-59
2022/12/27 08:58:45;;;;;;;3.10;1.83;;;6.50;99.90;;;6.43;100.00;102038.75;5163002;28;20049;-59
2022/12/27 09:01:18;;;;;;;4.25;1.85;;;6.60;99.90;;;6.37;100.00;102040.88;5163379;28;20050;-59
2022/12/27 09:03:51;;;;;;;3.08;1.88;;;6.60;99.90;;;6.29;100.00;102037.75;5163393;28;20051;-60
2022/12/27 09:06:26;;;;;;;3.88;1.48;;;6.60;99.90;;;6.20;100.00;102044.88;5162606;28;20499;-60
2022/12/27 09:09:00;;;;;;;2.85;1.42;;;6.50;99.90;;;6.16;100.00;102046.34;5162058;28;20051;-59
2022/12/27 09:11:33;;;;;;;4.57;2.17;;;6.50;99.90;;;6.34;100.00;102040.69;5145719;28;20054;-59
2022/12/27 09:14:06;;;;;;;3.65;1.63;;;6.60;99.90;;;6.29;100.00;102053.28;5163565;28;20038;-60
2022/12/27 09:16:39;;;;;;;4.28;1.67;;;6.60;99.90;;;6.25;100.00;102051.25;5322145;22;20052;-59
2022/12/27 09:19:13;;;;;;;2.70;1.38;;;6.60;99.90;;;6.21;100.00;102047.56;5183921;28;20399;-59
2022/12/27 09:21:46;;;;;;;3.03;1.60;;;6.50;99.90;;;6.25;100.00;102046.97;5183736;28;20060;-58
2022/12/27 09:24:18;;;;;;;4.05;1.67;;;6.50;99.90;;;6.30;100.00;102055.09;5184268;28;20050;-59
2022/12/27 09:26:50;;;;;;;3.40;1.60;;;6.50;99.90;;;6.37;100.00;102053.84;5170446;28;20042;-61
2022/12/27 09:29:23;;;;;;;4.38;1.58;;;6.50;99.90;;;6.44;100.00;102053.47;5163517;28;20844;-60
2022/12/27 09:31:55;;;;;;;3.42;1.70;;;6.60;99.90;;;6.56;100.00;102059.53;5163297;28;20046;-60
2022/12/27 09:34:28;;;;;;;2.63;1.45;;;6.70;99.90;;;6.62;100.00;102056.50;5163707;28;20042;-60
2022/12/27 09:37:00;;;;;;;2.95;1.58;;;6.70;99.90;;;6.69;100.00;102059.63;5163150;28;20069;-57
2022/12/27 09:39:32;;;;;;;3.08;1.63;;;6.80;99.90;;;6.77;100.00;102062.75;5163485;28;20053;-57
2022/12/27 09:42:15;;;;;;;5.05;1.70;;;6.90;99.90;;;6.86;100.00;102065.09;5163351;28;20043;-56
2022/12/27 09:44:52;;;;;;;2.47;1.38;;;7.00;99.90;;;6.93;100.00;102056.94;5163048;28;20057;-59
2022/12/27 09:47:28;;;;;;;3.67;1.67;;;7.00;99.90;;;7.03;100.00;102059.38;5163250;28;20046;-60
2022/12/27 09:50:06;;;;;;;2.03;1.05;;;7.10;99.90;;;7.13;100.00;102060.91;5163818;28;20046;-59
2022/12/27 09:52:43;;;;;;;3.33;1.10;;;7.20;99.90;;;7.19;100.00;102059.66;5163723;28;20042;-59
2022/12/27 09:55:20;;;;;;;1.75;0.90;;;7.30;99.90;;;7.24;100.00;102059.97;5163665;28;20042;-58
2022/12/27 09:58:15;;;;;;;2.95;0.93;;;7.30;99.90;;;7.32;100.00;102064.88;5163976;28;20452;-60
2022/12/27 10:00:50;;;;;;;3.30;1.00;;;7.40;99.90;;;7.46;100.00;102057.13;5163653;28;20426;-56
2022/12/27 10:03:25;;;;;;;;;;;7.50;99.90;;;7.60;100.00;102056.34;5164278;28;20042;-58
2022/12/27 10:06:09;;;;;;;3.42;1.40;;;7.60;99.90;;;7.74;100.00;102055.56;5163760;28;19921;-58
2022/12/27 10:08:48;;;;;;;3.03;1.15;;;7.80;99.90;;;7.85;100.00;102054.56;5164214;28;20043;-60
2022/12/27 10:11:37;;;;;;;2.55;1.08;;;7.90;99.90;;;7.98;100.00;102050.19;5163493;28;20491;-58
2022/12/27 10:14:26;;;;;;;3.13;1.15;;;8.00;99.90;;;8.11;100.00;102052.78;5163534;28;20050;-60
2022/12/27 10:17:07;;;;;;;3.42;1.33;;;8.10;99.90;;;8.24;100.00;102044.97;5161758;28;20055;-58
2022/12/27 10:19:50;;;;;;;2.05;1.08;;;8.20;99.90;;;8.42;100.00;102051.38;5165762;28;20518;-59
2022/12/27 10:22:33;;;;;;;3.67;1.00;;;8.40;99.90;;;8.52;100.00;102047.63;5167044;28;20510;-58
2022/12/27 10:25:13;;;;;;;3.60;1.00;;;8.50;99.90;;;8.60;100.00;102042.91;5166893;28;20133;-60
2022/12/27 10:27:45;;;;;;;3.03;1.23;;;8.60;99.90;;;8.70;100.00;102047.91;5166929;28;20058;-58
2022/12/27 10:30:21;;;;;;;3.00;1.02;;;8.70;99.90;;;8.82;100.00;102038.25;5148976;28;20051;-59
2022/12/27 10:32:53;;;;;;;4.65;1.20;;;8.80;99.90;;;9.36;100.00;102037.19;5166444;28;20052;-62
2022/12/27 10:35:25;;;;;;;10.98;2.28;;;9.30;99.90;;;9.95;100.00;102034.56;5166457;28;20084;-59
2022/12/27 10:38:00;;;;;;;4.55;1.30;;;10.00;99.90;;;10.68;100.00;102045.59;5166386;28;20415;-59
2022/12/27 10:40:40;;;;;;;3.95;1.00;;;10.80;99.90;;;11.14;100.00;102038.47;5166663;28;20514;-60
2022/12/27 10:43:19;;;;;;;2.15;1.27;;;11.40;99.90;;;11.22;100.00;102040.63;5165159;28;20042;-61
2022/12/27 10:45:51;;;;;;;3.30;0.70;;;11.40;99.90;;;11.16;100.00;102042.91;5148023;28;20053;-61
2022/12/27 10:48:26;;;;;;;6.32;1.00;;;11.30;99.90;;;11.07;100.00;102044.19;5146115;28;20045;-60
2022/12/27 10:51:01;;;;;;;2.60;0.80;;;11.20;99.90;;;11.01;100.00;102050.81;5146253;28;20042;-59
2022/12/27 10:53:41;;;;;;;2.95;0.90;;;11.10;99.90;;;10.97;100.00;102054.09;5148074;28;20058;-61
2022/12/27 10:56:26;;;;;;;3.17;0.98;;;11.00;99.90;;;10.85;100.00;102043.91;5159140;28;20038;-61
2022/12/27 10:59:23;;;;;;;0.82;0.65;;;10.90;99.90;;;10.74;100.00;102038.09;5171445;28;20054;-61
2022/12/27 11:02:17;;;;;;;2.92;1.10;;;10.80;99.90;;;10.66;100.00;102033.28;5147600;28;20073;-60
2022/12/27 11:04:58;;;;;;;2.25;1.00;;;10.70;99.90;;;10.56;100.00;102039.69;5165029;28;20042;-60
2022/12/27 11:07:31;;;;;;;;;;;10.60;99.90;;;10.46;100.00;102035.69;5140443;28;20089;-59
2022/12/27 11:10:17;;;;;;;3.15;0.82;;;10.50;99.90;;;10.36;100.00;102033.38;5164227;28;19988;-60
2022/12/27 11:12:57;;;;;;;2.90;1.20;;;10.40;99.90;;;10.36;100.00;102037.72;5164752;28;20046;-62
2022/12/27 11:15:32;;;;;;;2.40;0.98;;;10.30;99.90;;;10.31;100.00;102045.31;5165554;28;20046;-60
2022/12/27 11:18:11;;;;;;;3.08;0.90;;;10.30;99.90;;;10.26;100.00;102037.22;5165669;28;20042;-59
2022/12/27 11:20:48;;;;;;;3.45;1.00;;;10.30;99.90;;;10.26;100.00;102037.22;5168508;28;20539;-60
2022/12/27 11:23:23;;;;;;;1.73;0.82;;;10.30;99.90;;;10.27;100.00;102044.22;5146257;28;20546;-58
2022/12/27 11:25:58;;;;;;;;;;;10.20;99.90;;;10.80;100.00;102040.13;5146625;28;20516;-57
2022/12/27 11:28:36;;;;;;;3.20;0.88;;;10.90;99.90;;;11.36;100.00;102048.34;5159591;28;20366;-55
2022/12/27 11:31:12;;;;;;;4.25;0.98;;;11.50;99.90;;;11.85;100.00;102045.59;5165774;28;20058;-56
2022/12/27 11:33:48;;;;;;;5.38;1.10;;;12.00;99.90;;;11.96;100.00;102046.13;5165104;28;20053;-55
2022/12/27 11:36:27;;;;;;;2.08;0.63;;;12.10;99.90;;;11.74;98.61;102044.16;5165403;28;20048;-56
2022/12/27 11:39:00;;;;;;;1.90;0.90;;;11.90;99.90;;;11.45;98.73;102039.19;5165758;28;20038;-56
2022/12/27 11:41:41;;;;;;;3.20;0.88;;;11.60;99.90;;;11.16;99.07;102037.69;5165442;28;20054;-58
2022/12/27 11:44:20;;;;;;;1.58;0.68;;;11.30;99.90;;;10.92;99.68;102038.19;5165928;28;20054;-55
2022/12/27 11:46:59;;;;;;;1.38;1.05;;;11.10;99.90;;;10.76;100.00;102041.69;5165526;28;20053;-56
2022/12/27 11:49:37;;;;;;;3.45;1.00;;;10.90;99.90;;;10.63;100.00;102040.94;5165687;28;20066;-57
2022/12/27 11:52:38;;;;;;;2.30;0.80;;;10.70;99.90;;;10.47;100.00;102037.50;5166012;28;20045;-57
2022/12/27 11:55:51;;;;;;;1.75;0.77;;;10.50;99.90;;;10.33;100.00;102043.66;5166372;28;20050;-58
2022/12/27 11:59:11;;;;;;;2.10;0.60;;;10.40;99.90;;;10.19;100.00;102039.38;5166414;28;20045;-56
2022/12/27 12:02:28;;;;;;;3.08;1.02;;;10.30;99.90;;;10.10;100.00;102041.44;5165532;28;20054;-58
2022/12/27 12:05:42;;;;;;;3.38;1.15;;;10.10;99.90;;;10.00;100.00;102043.53;5146154;28;20065;-57
2022/12/27 12:08:55;;;;;;;0.80;0.43;;;10.00;99.90;;;10.06;100.00;102035.16;5165534;28;20120;-57
2022/12/27 12:11:46;;;;;;;2.72;0.82;;;10.00;99.90;;;10.04;100.00;102029.88;5165552;28;20053;-56
2022/12/27 12:14:52;;;;;;;0.75;0.73;;;10.00;99.90;;;10.00;100.00;102035.72;5165553;28;20054;-56
2022/12/27 12:17:48;;;;;;;2.70;0.77;;;10.00;99.90;;;9.96;100.00;102031.13;5165302;28;20038;-57
2022/12/27 12:20:56;;;;;;;1.58;0.73;;;10.00;99.90;;;9.94;100.00;102027.56;5165021;28;20057;-55
2022/12/27 12:23:50;;;;;;;2.38;0.73;;;10.00;99.90;;;9.90;100.00;102025.56;5164958;28;20061;-55
2022/12/27 12:26:24;;;;;;;1.55;0.90;;;9.90;99.90;;;9.87;100.00;102014.09;5164940;28;20046;-59
2022/12/27 12:29:37;;;;;;;2.65;0.93;;;9.90;99.90;;;9.90;100.00;102015.16;5147901;28;20353;-57
2022/12/27 12:32:25;;;;;;;2.05;0.73;;;9.90;99.90;;;9.90;100.00;102016.84;5164748;28;20053;-58
2022/12/27 12:35:07;;;;;;;;;;;9.90;99.90;;;9.89;100.00;102005.53;5165308;28;20125;-56